createdAt,value
2018-07-03T00:00:32.664Z,15.81
2018-07-03T00:03:01.077Z,15.74
2018-07-03T00:05:29.536Z,15.67
2018-07-03T00:07:58.087Z,15.57
2018-07-03T00:10:26.826Z,15.60
2018-07-03T00:12:55.254Z,15.55
2018-07-03T00:15:23.680Z,15.53
2018-07-03T00:17:52.159Z,15.60
2018-07-03T00:21:49.885Z,15.71
2018-07-03T00:24:18.327Z,15.76
2018-07-03T00:26:46.751Z,15.78
2018-07-03T00:29:15.176Z,15.50
2018-07-03T00:31:43.600Z,15.37
2018-07-03T00:34:12.043Z,15.34
2018-07-03T00:36:40.469Z,15.36
2018-07-03T00:39:09.727Z,15.24
2018-07-03T00:41:38.163Z,15.21
2018-07-03T00:44:06.590Z,15.11
2018-07-03T00:46:35.028Z,15.03
2018-07-03T00:49:03.535Z,14.94
2018-07-03T00:51:31.942Z,14.96
2018-07-03T00:54:00.390Z,15.04
2018-07-03T00:56:28.823Z,15.02
2018-07-03T00:58:57.337Z,14.85
2018-07-03T01:01:25.767Z,14.90
2018-07-03T01:06:14.590Z,14.88
2018-07-03T01:08:43.034Z,14.85
2018-07-03T01:11:11.513Z,15.03
2018-07-03T01:13:39.919Z,14.82
2018-07-03T01:16:08.411Z,14.84
2018-07-03T01:18:36.899Z,14.78
2018-07-03T01:21:05.413Z,14.55
2018-07-03T01:23:33.895Z,14.56
2018-07-03T01:26:02.320Z,14.52
2018-07-03T01:28:30.772Z,14.60
2018-07-03T01:30:59.183Z,14.67
2018-07-03T01:33:27.583Z,14.76
2018-07-03T01:35:56.350Z,14.53
2018-07-03T01:38:24.963Z,14.41
2018-07-03T01:40:53.387Z,14.52
2018-07-03T01:43:21.830Z,14.37
2018-07-03T01:45:50.311Z,14.48
2018-07-03T01:48:18.785Z,14.24
2018-07-03T01:50:47.217Z,14.06
2018-07-03T01:53:16.110Z,14.00
2018-07-03T01:55:44.913Z,14.10
2018-07-03T01:58:13.550Z,14.12
2018-07-03T02:00:41.988Z,14.02
2018-07-03T02:03:10.403Z,13.94
2018-07-03T02:05:38.873Z,14.07
2018-07-03T02:08:07.302Z,13.98
2018-07-03T02:10:35.740Z,13.87
2018-07-03T02:13:04.197Z,13.72
2018-07-03T02:15:32.656Z,13.98
2018-07-03T02:18:01.118Z,13.99
2018-07-03T02:20:29.552Z,14.07
2018-07-03T02:22:58.012Z,13.86
2018-07-03T02:25:26.451Z,13.56
2018-07-03T02:27:54.945Z,13.55
2018-07-03T02:30:23.384Z,13.48
2018-07-03T02:32:52.192Z,13.53
2018-07-03T02:35:20.652Z,13.49
2018-07-03T02:37:49.071Z,13.34
2018-07-03T02:40:17.725Z,13.40
2018-07-03T02:42:46.147Z,13.39
2018-07-03T02:45:14.555Z,13.47
2018-07-03T02:47:43.017Z,13.52
2018-07-03T02:50:11.464Z,13.33
2018-07-03T02:52:39.940Z,13.32
2018-07-03T02:55:08.340Z,13.53
2018-07-03T02:57:36.859Z,13.28
2018-07-03T03:00:06.110Z,13.12
2018-07-03T03:02:34.541Z,13.64
2018-07-03T03:05:03.003Z,14.03
2018-07-03T03:07:31.456Z,14.74
2018-07-03T03:09:59.917Z,14.83
2018-07-03T03:12:28.324Z,14.93
2018-07-03T03:14:56.780Z,14.84
2018-07-03T03:17:25.251Z,14.88
2018-07-03T03:19:53.967Z,14.86
2018-07-03T03:22:22.468Z,15.10
2018-07-03T03:24:50.884Z,14.89
2018-07-03T03:27:19.306Z,13.98
2018-07-03T03:29:47.799Z,14.57
2018-07-03T03:32:16.229Z,14.86
2018-07-03T03:34:44.654Z,15.04
2018-07-03T03:37:13.080Z,16.07
2018-07-03T03:39:41.507Z,15.45
2018-07-03T03:42:09.968Z,14.60
2018-07-03T03:44:38.447Z,13.98
2018-07-03T03:47:07.571Z,13.70
2018-07-03T03:49:35.997Z,13.79
2018-07-03T03:52:04.447Z,14.06
2018-07-03T03:54:32.920Z,14.00
2018-07-03T03:57:01.507Z,13.89
2018-07-03T03:59:30.044Z,13.84
2018-07-03T04:01:58.600Z,13.79
2018-07-03T04:04:27.307Z,13.82
2018-07-03T04:06:55.747Z,13.97
2018-07-03T04:09:24.175Z,13.84
2018-07-03T04:11:52.970Z,14.04
2018-07-03T04:14:21.452Z,14.35
2018-07-03T04:16:49.932Z,14.37
2018-07-03T04:19:18.372Z,14.44
2018-07-03T04:21:46.859Z,14.49
2018-07-03T04:24:15.278Z,14.69
2018-07-03T04:26:43.707Z,14.71
2018-07-03T04:29:12.192Z,14.59
2018-07-03T04:31:40.631Z,14.73
2018-07-03T04:34:09.147Z,14.74
2018-07-03T04:36:37.543Z,14.84
2018-07-03T04:39:09.114Z,15.01
2018-07-03T04:41:37.748Z,14.89
2018-07-03T04:44:06.462Z,14.96
2018-07-03T04:46:34.900Z,15.12
2018-07-03T04:49:03.398Z,15.09
2018-07-03T04:51:32.019Z,14.96
2018-07-03T04:54:00.442Z,15.23
2018-07-03T04:56:28.878Z,15.06
2018-07-03T04:58:57.348Z,15.22
2018-07-03T05:01:25.891Z,15.35
2018-07-03T05:03:54.334Z,15.52
2018-07-03T05:06:23.086Z,15.44
2018-07-03T05:08:51.522Z,15.53
2018-07-03T05:11:19.962Z,15.45
2018-07-03T05:13:48.370Z,15.52
2018-07-03T05:16:17.137Z,15.65
2018-07-03T05:18:45.796Z,15.69
2018-07-03T05:21:14.198Z,15.73
2018-07-03T05:23:42.632Z,15.94
2018-07-03T05:26:11.043Z,16.02
2018-07-03T05:28:39.588Z,16.26
2018-07-03T05:31:08.270Z,16.49
2018-07-03T05:33:36.718Z,16.52
2018-07-03T05:36:05.410Z,16.41
2018-07-03T05:38:33.851Z,16.66
2018-07-03T05:41:02.280Z,16.62
2018-07-03T05:43:30.735Z,16.93
2018-07-03T05:45:59.245Z,16.96
2018-07-03T05:48:27.634Z,17.00
2018-07-03T05:50:56.053Z,17.14
2018-07-03T05:53:24.511Z,16.89
2018-07-03T05:55:52.927Z,17.13
2018-07-03T05:58:21.393Z,17.19
2018-07-03T06:00:49.853Z,17.53
2018-07-03T06:03:18.441Z,17.46
2018-07-03T06:05:46.897Z,17.70
2018-07-03T06:08:15.338Z,17.61
2018-07-03T06:10:43.992Z,17.75
2018-07-03T06:13:12.643Z,17.80
2018-07-03T06:15:41.088Z,17.79
2018-07-03T06:18:09.515Z,17.87
2018-07-03T06:20:37.916Z,18.04
2018-07-03T06:23:06.359Z,18.15
2018-07-03T06:25:34.904Z,18.45
2018-07-03T06:28:03.553Z,18.20
2018-07-03T06:30:32.016Z,18.58
2018-07-03T06:33:00.442Z,18.68
2018-07-03T06:35:28.879Z,18.84
2018-07-03T06:37:57.360Z,18.79
2018-07-03T06:40:25.856Z,18.89
2018-07-03T06:42:54.307Z,19.15
2018-07-03T06:45:22.752Z,19.34
2018-07-03T06:47:51.203Z,19.29
2018-07-03T06:50:19.643Z,19.40
2018-07-03T06:52:48.069Z,19.40
2018-07-03T06:55:16.545Z,19.28
2018-07-03T06:57:45.064Z,19.56
2018-07-03T07:00:13.511Z,19.96
2018-07-03T07:02:42.110Z,20.04
2018-07-03T07:05:10.531Z,20.16
2018-07-03T07:07:39.008Z,19.97
2018-07-03T07:10:08.441Z,19.81
2018-07-03T07:12:36.900Z,19.82
2018-07-03T07:15:05.993Z,20.31
2018-07-03T07:17:34.573Z,20.52
2018-07-03T07:20:03.033Z,20.56
2018-07-03T07:22:31.477Z,20.68
2018-07-03T07:24:59.896Z,20.80
2018-07-03T07:27:28.495Z,20.94
2018-07-03T07:29:57.127Z,21.00
2018-07-03T07:32:25.583Z,20.77
2018-07-03T07:34:54.015Z,20.88
2018-07-03T07:37:22.475Z,21.11
2018-07-03T07:39:50.923Z,21.26
2018-07-03T07:42:19.396Z,21.31
2018-07-03T07:44:47.844Z,21.00
2018-07-03T07:47:16.403Z,21.32
2018-07-03T07:49:44.812Z,21.51
2018-07-03T07:52:13.303Z,21.60
2018-07-03T07:54:41.758Z,21.55
2018-07-03T07:57:10.216Z,21.92
2018-07-03T07:59:38.927Z,21.83
2018-07-03T08:02:07.710Z,21.81
2018-07-03T08:04:36.119Z,21.65
2018-07-03T08:07:04.624Z,21.91
2018-07-03T08:09:33.067Z,22.04
2018-07-03T08:12:01.500Z,22.19
2018-07-03T08:14:29.943Z,22.27
2018-07-03T08:16:58.343Z,22.26
2018-07-03T08:19:26.862Z,22.46
2018-07-03T08:21:55.582Z,22.85
2018-07-03T08:24:24.017Z,22.99
2018-07-03T08:26:52.414Z,22.93
2018-07-03T08:29:20.868Z,23.13
2018-07-03T08:31:49.292Z,22.89
2018-07-03T08:34:17.756Z,22.99
2018-07-03T08:36:46.256Z,23.00
2018-07-03T08:39:14.686Z,22.98
2018-07-03T08:41:43.159Z,23.23
2018-07-03T08:44:11.571Z,22.91
2018-07-03T08:46:40.159Z,22.93
2018-07-03T08:49:08.942Z,23.54
2018-07-03T08:51:37.895Z,23.58
2018-07-03T08:54:06.618Z,24.02
2018-07-03T08:56:35.036Z,24.06
2018-07-03T08:59:03.751Z,24.00
2018-07-03T09:01:32.174Z,23.98
2018-07-03T09:04:00.834Z,24.09
2018-07-03T09:06:29.276Z,24.20
2018-07-03T09:08:57.680Z,23.57
2018-07-03T09:11:26.166Z,24.18
2018-07-03T09:13:54.604Z,23.72
2018-07-03T09:16:23.126Z,24.29
2018-07-03T09:18:51.722Z,24.66
2018-07-03T09:21:20.156Z,24.64
2018-07-03T09:23:48.583Z,24.81
2018-07-03T09:26:17.159Z,24.80
2018-07-03T09:28:45.639Z,25.21
2018-07-03T09:31:14.227Z,25.08
2018-07-03T09:33:42.684Z,25.17
2018-07-03T09:36:11.155Z,25.30
2018-07-03T09:38:39.698Z,25.09
2018-07-03T09:41:08.267Z,24.95
2018-07-03T09:43:36.685Z,25.64
2018-07-03T09:46:05.454Z,24.88
2018-07-03T09:48:34.139Z,25.33
2018-07-03T09:51:02.580Z,25.73
2018-07-03T09:53:31.027Z,26.26
2018-07-03T09:55:59.472Z,26.81
2018-07-03T09:58:27.966Z,26.23
2018-07-03T10:00:57.236Z,26.15
2018-07-03T10:03:27.136Z,26.87
2018-07-03T10:05:58.266Z,26.83
2018-07-03T10:09:56.838Z,27.06
2018-07-03T10:12:25.276Z,27.08
2018-07-03T10:14:53.765Z,26.64
2018-07-03T10:17:22.480Z,26.83
2018-07-03T10:19:50.919Z,26.67
2018-07-03T10:22:19.308Z,26.84
2018-07-03T10:24:47.969Z,26.68
2018-07-03T10:27:16.363Z,26.80
2018-07-03T10:29:44.788Z,26.64
2018-07-03T10:32:13.239Z,26.49
2018-07-03T10:34:41.695Z,27.07
2018-07-03T10:37:10.093Z,27.57
2018-07-03T10:39:38.492Z,27.11
2018-07-03T10:42:07.414Z,27.13
2018-07-03T10:44:35.787Z,27.00
2018-07-03T10:47:04.188Z,26.99
2018-07-03T10:49:32.607Z,27.05
2018-07-03T10:52:01.002Z,26.85
2018-07-03T10:54:29.471Z,27.39
2018-07-03T10:56:58.119Z,27.69
2018-07-03T10:59:26.812Z,28.32
2018-07-03T11:01:55.264Z,28.08
2018-07-03T11:04:23.895Z,28.02
2018-07-03T11:06:52.317Z,28.91
2018-07-03T11:09:20.742Z,26.95
2018-07-03T11:11:49.198Z,26.54
2018-07-03T11:14:17.751Z,27.43
2018-07-03T11:16:46.132Z,27.39
2018-07-03T11:19:14.566Z,27.83
2018-07-03T11:21:42.988Z,27.68
2018-07-03T11:24:11.706Z,28.73
2018-07-03T11:26:40.111Z,29.10
2018-07-03T11:29:09.123Z,29.27
2018-07-03T11:31:37.579Z,28.86
2018-07-03T11:34:06.335Z,29.10
2018-07-03T11:36:34.775Z,28.76
2018-07-03T11:39:04.003Z,29.39
2018-07-03T11:41:32.407Z,29.46
2018-07-03T11:44:00.880Z,29.52
2018-07-03T11:46:29.391Z,30.47
2018-07-03T11:48:57.846Z,30.87
2018-07-03T11:51:26.803Z,31.72
2018-07-03T11:53:55.204Z,32.05
2018-07-03T11:56:23.857Z,29.44
2018-07-03T11:58:52.590Z,29.17
2018-07-03T12:01:21.106Z,31.94
2018-07-03T12:03:49.643Z,31.90
2018-07-03T12:06:18.080Z,31.71
2018-07-03T12:08:46.480Z,33.07
2018-07-03T12:11:14.998Z,33.18
2018-07-03T12:13:43.446Z,33.16
2018-07-03T12:16:11.903Z,31.37
2018-07-03T12:18:45.535Z,31.74
2018-07-03T12:21:14.179Z,32.43
2018-07-03T12:23:42.707Z,31.89
2018-07-03T12:26:11.235Z,34.19
2018-07-03T12:28:39.931Z,34.98
2018-07-03T12:31:08.351Z,32.59
2018-07-03T12:33:36.868Z,32.24
2018-07-03T12:36:06.752Z,33.55
2018-07-03T12:38:35.153Z,35.27
2018-07-03T12:41:03.581Z,33.50
2018-07-03T12:43:32.017Z,34.59
2018-07-03T12:46:00.486Z,35.23
2018-07-03T12:48:29.121Z,34.79
2018-07-03T12:50:57.552Z,34.61
2018-07-03T12:53:25.956Z,34.19
2018-07-03T12:55:54.599Z,34.04
2018-07-03T12:58:23.143Z,33.76
2018-07-03T13:00:51.694Z,31.99
2018-07-03T13:03:20.351Z,34.81
2018-07-03T13:05:48.804Z,32.47
2018-07-03T13:08:17.256Z,35.05
2018-07-03T13:10:45.904Z,34.61
2018-07-03T13:13:14.331Z,32.66
2018-07-03T13:15:42.800Z,33.10
2018-07-03T13:18:16.537Z,33.38
2018-07-03T13:20:44.926Z,33.58
2018-07-03T13:23:13.435Z,33.05
2018-07-03T13:25:41.823Z,33.83
2018-07-03T13:28:10.877Z,34.01
2018-07-03T13:30:39.688Z,33.16
2018-07-03T13:33:08.136Z,33.84
2018-07-03T13:35:36.692Z,32.78
2018-07-03T13:38:05.666Z,33.40
2018-07-03T13:40:34.154Z,34.65
2018-07-03T13:43:02.626Z,33.59
2018-07-03T13:45:31.036Z,34.14
2018-07-03T13:47:59.512Z,33.09
2018-07-03T13:50:27.946Z,33.99
2018-07-03T13:52:56.346Z,34.55
2018-07-03T13:55:24.791Z,35.10
2018-07-03T13:57:53.243Z,34.79
2018-07-03T14:00:21.687Z,35.62
2018-07-03T14:02:50.097Z,35.26
2018-07-03T14:05:18.557Z,35.50
2018-07-03T14:07:46.960Z,35.83
2018-07-03T14:10:15.578Z,35.21
2018-07-03T14:12:44.016Z,33.28
2018-07-03T14:15:12.619Z,33.96
2018-07-03T14:17:41.067Z,34.86
2018-07-03T14:20:09.486Z,34.95
2018-07-03T14:22:37.948Z,34.55
2018-07-03T14:25:06.459Z,32.12
2018-07-03T14:27:34.856Z,35.39
2018-07-03T14:30:03.396Z,36.42
2018-07-03T14:32:31.919Z,36.21
2018-07-03T14:35:00.355Z,34.50
2018-07-03T14:37:28.767Z,34.10
2018-07-03T14:39:57.182Z,35.48
2018-07-03T14:42:25.606Z,35.69
2018-07-03T14:44:54.042Z,34.61
2018-07-03T14:47:22.968Z,34.01
2018-07-03T14:49:51.416Z,32.78
2018-07-03T14:52:19.960Z,33.57
2018-07-03T14:54:48.795Z,33.52
2018-07-03T14:57:17.232Z,32.92
2018-07-03T14:59:45.707Z,33.14
2018-07-03T15:02:14.175Z,33.41
2018-07-03T15:04:42.745Z,32.91
2018-07-03T15:07:11.223Z,34.92
2018-07-03T15:09:39.652Z,34.61
2018-07-03T15:12:08.196Z,33.42
2018-07-03T15:14:36.602Z,34.15
2018-07-03T15:17:05.036Z,33.93
2018-07-03T15:19:38.840Z,32.61
2018-07-03T15:22:07.723Z,33.65
2018-07-03T15:24:36.430Z,33.06
2018-07-03T15:27:04.963Z,32.79
2018-07-03T15:29:33.397Z,32.77
2018-07-03T15:32:01.820Z,33.70
2018-07-03T15:34:30.287Z,33.91
2018-07-03T15:36:58.712Z,33.64
2018-07-03T15:39:27.464Z,33.06
2018-07-03T15:41:55.865Z,33.26
2018-07-03T15:44:35.440Z,35.59
2018-07-03T15:47:03.970Z,35.17
2018-07-03T15:49:32.520Z,33.88
2018-07-03T15:52:00.950Z,33.25
2018-07-03T15:54:29.331Z,33.16
2018-07-03T15:56:57.807Z,35.34
2018-07-03T15:59:26.249Z,35.40
2018-07-03T16:01:54.677Z,34.45
2018-07-03T16:05:33.259Z,33.56
2018-07-03T16:08:11.191Z,34.37
2018-07-03T16:10:39.615Z,34.13
2018-07-03T16:13:08.032Z,34.78
2018-07-03T16:15:36.977Z,33.40
2018-07-03T16:18:05.753Z,33.77
2018-07-03T16:20:39.820Z,33.53
2018-07-03T16:23:08.908Z,34.89
2018-07-03T16:25:37.557Z,32.55
2018-07-03T16:28:06.219Z,33.14
2018-07-03T16:30:34.682Z,34.43
2018-07-03T16:33:03.055Z,33.88
2018-07-03T16:35:31.749Z,33.58
2018-07-03T16:38:00.390Z,33.60
2018-07-03T16:40:29.052Z,33.38
2018-07-03T16:42:57.739Z,35.56
2018-07-03T16:45:26.473Z,35.27
2018-07-03T16:47:55.395Z,34.48
2018-07-03T16:50:24.001Z,35.78
2018-07-03T16:52:52.546Z,35.53
2018-07-03T16:55:21.446Z,36.17
2018-07-03T16:57:50.741Z,36.50
2018-07-03T17:00:26.171Z,35.15
2018-07-03T17:02:54.707Z,36.59
2018-07-03T17:05:23.955Z,34.34
2018-07-03T17:07:52.535Z,35.24
2018-07-03T17:10:21.107Z,36.15
2018-07-03T17:12:49.849Z,35.15
2018-07-03T17:15:18.221Z,35.25
2018-07-03T17:17:46.917Z,37.00
2018-07-03T17:20:15.608Z,34.19
2018-07-03T17:22:44.025Z,36.08
2018-07-03T17:25:12.505Z,36.11
2018-07-03T17:27:41.074Z,34.63
2018-07-03T17:30:09.596Z,35.02
2018-07-03T17:32:38.200Z,36.56
2018-07-03T17:35:06.890Z,36.91
2018-07-03T17:37:35.419Z,36.99
2018-07-03T17:40:15.009Z,36.36
2018-07-03T17:44:58.797Z,35.50
2018-07-03T17:47:27.318Z,35.30
2018-07-03T17:49:55.799Z,34.22
2018-07-03T17:52:24.209Z,35.54
2018-07-03T17:54:52.767Z,35.17
2018-07-03T17:57:21.455Z,35.41
2018-07-03T17:59:49.899Z,33.93
2018-07-03T18:02:18.340Z,33.73
2018-07-03T18:04:46.943Z,33.63
2018-07-03T18:07:15.520Z,33.30
2018-07-03T18:09:44.103Z,33.58
2018-07-03T18:12:12.856Z,32.58
2018-07-03T18:14:41.275Z,32.22
2018-07-03T18:17:10.988Z,33.60
2018-07-03T18:19:44.988Z,32.19
2018-07-03T18:22:13.425Z,30.97
2018-07-03T18:24:41.933Z,29.56
2018-07-03T18:27:11.214Z,29.18
2018-07-03T18:29:53.085Z,29.66
2018-07-03T18:32:23.852Z,29.15
2018-07-03T18:34:52.468Z,29.69
2018-07-03T18:37:20.916Z,29.53
2018-07-03T18:39:49.707Z,29.62
2018-07-03T18:42:18.183Z,29.02
2018-07-03T18:44:46.631Z,28.70
2018-07-03T18:47:16.302Z,28.08
2018-07-03T18:49:45.083Z,27.27
2018-07-03T18:52:13.548Z,26.74
2018-07-03T18:54:42.180Z,26.30
2018-07-03T18:57:11.472Z,26.04
2018-07-03T18:59:42.462Z,25.80
2018-07-03T19:02:13.803Z,25.70
2018-07-03T19:04:45.787Z,25.68
2018-07-03T19:07:14.376Z,25.50
2018-07-03T19:09:42.784Z,25.49
2018-07-03T19:12:11.169Z,25.16
2018-07-03T19:14:39.604Z,24.88
2018-07-03T19:17:08.421Z,24.89
2018-07-03T19:19:37.278Z,24.85
2018-07-03T19:22:06.032Z,24.75
2018-07-03T19:24:34.662Z,24.33
2018-07-03T19:27:03.053Z,24.09
2018-07-03T19:29:31.527Z,24.03
2018-07-03T19:31:59.989Z,23.82
2018-07-03T19:34:28.481Z,23.57
2018-07-03T19:36:56.876Z,23.73
2018-07-03T19:39:25.294Z,23.53
2018-07-03T19:43:38.789Z,23.50
2018-07-03T19:46:07.803Z,23.40
2018-07-03T19:48:36.230Z,23.32
2018-07-03T19:51:04.764Z,23.35
2018-07-03T19:53:33.170Z,23.35
2018-07-03T19:56:01.633Z,23.27
2018-07-03T19:58:30.351Z,23.25
2018-07-03T20:00:58.985Z,23.36
2018-07-03T20:03:27.465Z,23.25
2018-07-03T20:05:56.107Z,23.21
2018-07-03T20:08:24.540Z,23.10
2018-07-03T20:10:53.019Z,22.87
2018-07-03T20:13:21.468Z,22.73
2018-07-03T20:15:49.924Z,22.17
2018-07-03T20:18:18.578Z,22.48
2018-07-03T20:20:47.355Z,22.35
2018-07-03T20:23:15.803Z,22.27
2018-07-03T20:25:44.282Z,22.09
2018-07-03T20:28:12.691Z,21.95
2018-07-03T20:30:41.271Z,21.67
2018-07-03T20:33:09.766Z,21.86
2018-07-03T20:35:38.194Z,21.95
2018-07-03T20:38:07.353Z,21.87
2018-07-03T20:40:51.893Z,21.92
2018-07-03T20:43:20.562Z,21.67
2018-07-03T20:45:49.035Z,21.44
2018-07-03T20:48:17.498Z,21.26
2018-07-03T20:50:45.991Z,21.20
2018-07-03T20:53:14.968Z,21.12
2018-07-03T20:55:43.637Z,21.13
2018-07-03T20:58:12.198Z,21.17
2018-07-03T21:00:40.674Z,20.97
2018-07-03T21:03:09.352Z,20.95
2018-07-03T21:05:37.895Z,20.88
2018-07-03T21:08:07.294Z,20.71
2018-07-03T21:10:36.132Z,20.51
2018-07-03T21:13:04.504Z,20.67
2018-07-03T21:15:32.940Z,20.56
2018-07-03T21:18:01.374Z,20.58
2018-07-03T21:20:29.823Z,20.52
2018-07-03T21:22:58.306Z,20.44
2018-07-03T21:25:26.751Z,20.56
2018-07-03T21:27:55.170Z,20.27
2018-07-03T21:30:23.649Z,20.35
2018-07-03T21:32:52.104Z,20.35
2018-07-03T21:35:20.739Z,20.35
2018-07-03T21:37:49.139Z,20.09
2018-07-03T21:40:17.593Z,20.21
2018-07-03T21:42:46.047Z,19.93
2018-07-03T21:45:14.698Z,20.10
2018-07-03T21:47:43.165Z,20.22
2018-07-03T21:50:11.590Z,20.39
2018-07-03T21:52:40.466Z,20.36
2018-07-03T21:55:08.942Z,20.00
2018-07-03T21:57:37.568Z,19.90
2018-07-03T22:00:07.564Z,19.97
2018-07-03T22:02:36.595Z,19.83
2018-07-03T22:05:05.284Z,19.63
2018-07-03T22:07:33.802Z,19.62
2018-07-03T22:10:02.448Z,19.64
2018-07-03T22:12:31.188Z,19.62
2018-07-03T22:14:59.595Z,19.51
2018-07-03T22:17:28.024Z,19.60
2018-07-03T22:19:56.443Z,19.56
2018-07-03T22:24:52.253Z,18.68
2018-07-03T22:27:20.787Z,18.74
2018-07-03T22:29:49.146Z,18.79
2018-07-03T22:32:17.590Z,18.78
2018-07-03T22:34:46.061Z,18.45
2018-07-03T22:37:14.507Z,18.41
2018-07-03T22:39:42.931Z,18.40
2018-07-03T22:42:11.351Z,18.44
2018-07-03T22:44:39.793Z,18.28
2018-07-03T22:47:08.215Z,18.30
2018-07-03T22:49:36.664Z,18.19
2018-07-03T22:52:05.090Z,18.17
2018-07-03T22:54:33.495Z,18.17
2018-07-03T22:57:01.957Z,18.34
2018-07-03T22:59:30.347Z,18.26
2018-07-03T23:01:58.858Z,18.13
2018-07-03T23:04:27.269Z,18.14
2018-07-03T23:06:55.647Z,18.14
2018-07-03T23:09:24.331Z,18.01
2018-07-03T23:11:52.929Z,18.05
2018-07-03T23:14:21.402Z,18.03
2018-07-03T23:16:49.818Z,18.04
2018-07-03T23:19:18.223Z,18.09
2018-07-03T23:21:46.656Z,17.73
2018-07-03T23:24:15.037Z,17.60
2018-07-03T23:26:43.594Z,17.70
2018-07-03T23:29:12.026Z,17.58
2018-07-03T23:31:40.424Z,17.45
2018-07-03T23:34:08.855Z,17.38
2018-07-03T23:36:37.437Z,17.35
2018-07-03T23:39:08.940Z,17.35
2018-07-03T23:41:37.391Z,17.29
2018-07-03T23:44:05.967Z,17.31
2018-07-03T23:46:45.440Z,17.39
2018-07-03T23:49:25.049Z,17.18
2018-07-03T23:52:04.628Z,17.18
2018-07-03T23:54:44.305Z,16.97
2018-07-03T23:57:23.927Z,16.88
